Terminal Aerodrome Forecast
Issued by NWS

Current Version | Previous Version | Text Only | Print | Product List | Glossary Off
Versions: 1 2 3 4 5 6 7 8 9 10 11 12 13 14 15 16 17 18 19 20 21 22 23 24 25

000
FTUS41 KILN 171728
TAFLUK
TAF
KLUK 171728Z 1718/1818 19003KT P6SM FEW045
     FM180000 00000KT P6SM FEW080
     FM180500 00000KT 3SM BR FEW080
      TEMPO 1807/1811 1SM BR
     FM181400 VRB02KT P6SM SCT045 BKN120=

USA.gov is the U.S. government's official web portal to all federal, state and local government web resources and services.